»·PEaware :: N319TB KSNA-KTLR

N319TB :: KSNA-KTLR

FLIGHT INFORMATION

Flight Status: Arrived
Operator: Privately registered:
United States
More flights under this callsign
Pilot: Gavin S. (2922)
Aircraft: SOCATA TBM-900
(TBM9)
More flights by this aircraft type
Origin: KSNA John Wayne-Orange Co
United States
Destination: KTLR Mefford
United States
More flights between these airports :: More routes between these airports
Route: +MUSEL8 SLI V459 LHS V165 AMONT TTE EXTRA DINUB VIS
File this flight plan on PilotEdge
Remarks:
Altitude:
(Current/Filed)
280ft
Speed:
(Current/Filed)
260kts
Departed: 04-Dec-18 10:30 AM
Arrived: 04-Dec-18 11:25 AM
Distance/Time
Traveled:
165nm/0:55
Distance/Time
To Go:
Arrived

Flight Plot

Page will automatically refresh every two minutes.

Flight plan parsing failed; only flown route is shown


Map Options




Map Legend


Flown Route
Filed Route
Departure Airport
Arrival Airport
Navaid (VOR, NDB)
Fix

Horizontal Profiles

Position Reports

Time Latitude Longitude Heading Altitude Ground
Speed
04-Dec-18 09:59 33.675130 -117.871473 42 59ft 0kts
04-Dec-18 10:00 33.675130 -117.871473 42 59ft 0kts
04-Dec-18 10:01 33.675130 -117.871473 42 59ft 0kts
04-Dec-18 10:02 33.675130 -117.871473 42 59ft 0kts
04-Dec-18 10:03 33.675130 -117.871473 42 59ft 0kts
04-Dec-18 10:04 33.675130 -117.871473 42 59ft 0kts
04-Dec-18 10:05 33.675130 -117.871473 42 59ft 0kts
04-Dec-18 10:06 33.675130 -117.871473 42 59ft 0kts
04-Dec-18 10:07 33.675130 -117.871473 42 59ft 0kts
04-Dec-18 10:08 33.675130 -117.871473 42 59ft 0kts
04-Dec-18 10:09 33.675130 -117.871473 42 59ft 0kts
04-Dec-18 10:10 33.675130 -117.871473 42 59ft 0kts
04-Dec-18 10:11 33.675130 -117.871473 42 59ft 0kts
04-Dec-18 10:12 33.675130 -117.871473 42 59ft 0kts
04-Dec-18 10:13 33.675130 -117.871473 42 59ft 0kts
04-Dec-18 10:14 33.675130 -117.871473 42 59ft 0kts
04-Dec-18 10:15 33.675130 -117.871473 42 59ft 0kts
04-Dec-18 10:16 33.675130 -117.871473 42 59ft 0kts
04-Dec-18 10:17 33.675130 -117.871473 42 59ft 0kts
04-Dec-18 10:18 33.675130 -117.871473 42 59ft 0kts
04-Dec-18 10:19 33.675130 -117.871473 42 59ft 0kts
04-Dec-18 10:20 33.675130 -117.871473 42 59ft 0kts
04-Dec-18 10:21 33.675130 -117.871473 42 59ft 0kts
04-Dec-18 10:22 33.675130 -117.871473 42 59ft 0kts
04-Dec-18 10:23 33.675130 -117.871473 42 59ft 0kts
04-Dec-18 10:24 33.675130 -117.871473 42 59ft 0kts
04-Dec-18 10:25 33.675867 -117.870235 30 59ft 13kts
04-Dec-18 10:26 33.680034 -117.867779 25 59ft 15kts
04-Dec-18 10:27 33.681250 -117.866718 78 59ft 0kts
04-Dec-18 10:28 33.681272 -117.866584 78 59ft 6kts
04-Dec-18 10:29 33.676714 -117.868227 204 59ft 84kts
04-Dec-18 10:30 33.644777 -117.881317 188 1293ft 129kts
04-Dec-18 10:31 33.609976 -117.887571 188 2935ft 129kts
04-Dec-18 10:32 33.573332 -117.894153 190 4736ft 136kts
04-Dec-18 10:33 33.543835 -117.911750 276 6479ft 124kts
04-Dec-18 10:34 33.556182 -117.950515 291 7749ft 126kts
04-Dec-18 10:35 33.573669 -117.987433 334 9660ft 140kts
04-Dec-18 10:36 33.613408 -117.999206 338 11518ft 154kts
04-Dec-18 10:37 33.656731 -118.013147 338 13139ft 176kts
04-Dec-18 10:38 33.706029 -118.029248 336 14859ft 188kts
04-Dec-18 10:39 33.757988 -118.046474 336 16070ft 224kts
04-Dec-18 10:40 33.822617 -118.077338 327 16053ft 268kts
04-Dec-18 10:41 33.881319 -118.110821 322 18401ft 204kts
04-Dec-18 10:42 33.933545 -118.141047 322 19975ft 212kts
04-Dec-18 10:43 33.982827 -118.169460 321 21320ft 216kts
04-Dec-18 10:44 34.037484 -118.200988 320 22912ft 221kts
04-Dec-18 10:45 34.092232 -118.232630 319 24344ft 224kts
04-Dec-18 10:46 34.143247 -118.262132 318 25830ft 224kts
04-Dec-18 10:47 34.189530 -118.288917 316 27394ft 218kts
04-Dec-18 10:48 34.239646 -118.318213 317 28163ft 242kts
04-Dec-18 10:49 34.299079 -118.352710 320 28168ft 280kts
04-Dec-18 10:50 34.364853 -118.390913 320 28167ft 298kts
04-Dec-18 10:51 34.443429 -118.436700 321 28178ft 311kts
04-Dec-18 10:52 34.530650 -118.487652 321 28196ft 317kts
04-Dec-18 10:53 34.610484 -118.534400 321 28209ft 320kts
04-Dec-18 10:54 34.689110 -118.580073 327 28235ft 328kts
04-Dec-18 10:55 34.777806 -118.610701 332 28280ft 333kts
04-Dec-18 10:56 34.865753 -118.642026 332 28280ft 334kts
04-Dec-18 10:57 34.952491 -118.673027 332 28258ft 336kts
04-Dec-18 10:58 35.042720 -118.705297 333 28186ft 340kts
04-Dec-18 10:59 35.125388 -118.734612 333 28149ft 341kts
04-Dec-18 11:00 35.208204 -118.764175 333 28132ft 340kts
04-Dec-18 11:01 35.291601 -118.794293 333 28112ft 340kts
04-Dec-18 11:02 35.386769 -118.828744 333 28109ft 339kts
04-Dec-18 11:03 35.477631 -118.861717 333 28110ft 340kts
04-Dec-18 11:04 35.563489 -118.892944 333 28113ft 342kts
04-Dec-18 11:05 35.657693 -118.927356 334 26847ft 368kts
04-Dec-18 11:06 35.757180 -118.963685 335 25406ft 378kts
04-Dec-18 11:08 35.856585 -119.000094 336 23728ft 378kts
04-Dec-18 11:09 35.955183 -119.040813 332 21763ft 369kts
04-Dec-18 11:10 36.049833 -119.085838 333 19793ft 357kts
04-Dec-18 11:11 36.135229 -119.126559 334 17892ft 341kts
04-Dec-18 11:12 36.214206 -119.164296 335 16057ft 332kts
04-Dec-18 11:13 36.294071 -119.202540 336 14172ft 322kts
04-Dec-18 11:14 36.365446 -119.258815 315 13697ft 299kts
04-Dec-18 11:15 36.415757 -119.335261 267 12172ft 269kts
04-Dec-18 11:16 36.402808 -119.419383 254 10206ft 244kts
04-Dec-18 11:17 36.365888 -119.473294 176 8287ft 211kts
04-Dec-18 11:18 36.320388 -119.449175 147 6307ft 167kts
04-Dec-18 11:19 36.283230 -119.423191 147 4372ft 130kts
04-Dec-18 11:20 36.255848 -119.404239 148 3320ft 108kts
04-Dec-18 11:21 36.229566 -119.385117 147 2409ft 102kts
04-Dec-18 11:22 36.204744 -119.365216 147 1555ft 92kts
04-Dec-18 11:23 36.183752 -119.348128 146 902ft 89kts
04-Dec-18 11:24 36.163089 -119.332073 146 356ft 82kts
04-Dec-18 11:25 36.155779 -119.327020 237 274ft 0kts
04-Dec-18 11:25 36.155779 -119.327020 237 274ft 0kts
04-Dec-18 11:27 36.155779 -119.327020 237 274ft 0kts
04-Dec-18 11:28 36.155779 -119.327020 237 274ft 0kts
04-Dec-18 11:29 36.155779 -119.327020 237 274ft 0kts

Navigation Log

Ident Type
Flight plan parsing failed, navigation log unavailable